createdAt,value
2023-05-21T00:00:22.190Z,94.07
2023-05-21T00:02:49.356Z,93.97
2023-05-21T00:05:18.175Z,94.99
2023-05-21T00:07:45.864Z,95.83
2023-05-21T00:10:13.023Z,96.72
2023-05-21T00:12:40.225Z,97.20
2023-05-21T00:15:07.839Z,95.17
2023-05-21T00:17:36.940Z,97.36
2023-05-21T00:20:09.966Z,97.43
2023-05-21T00:22:36.525Z,97.45
2023-05-21T00:25:03.907Z,98.53
2023-05-21T00:27:30.535Z,98.96
2023-05-21T00:29:57.085Z,97.44
2023-05-21T00:32:23.721Z,96.52
2023-05-21T00:34:50.352Z,96.89
2023-05-21T00:37:16.977Z,97.49
2023-05-21T00:39:43.494Z,96.87
2023-05-21T00:42:10.445Z,96.16
2023-05-21T00:44:37.007Z,95.80
2023-05-21T00:47:04.561Z,96.10
2023-05-21T00:49:31.799Z,94.27
2023-05-21T00:52:01.460Z,95.45
2023-05-21T00:54:28.211Z,94.83
2023-05-21T00:56:56.147Z,90.80
2023-05-21T00:59:24.158Z,93.38
2023-05-21T01:01:56.461Z,91.60
2023-05-21T01:04:23.983Z,86.86
2023-05-21T01:06:53.451Z,89.90
2023-05-21T01:09:20.416Z,92.25
2023-05-21T01:11:49.691Z,92.24
2023-05-21T01:14:17.770Z,94.03
2023-05-21T01:16:47.110Z,93.09
2023-05-21T01:19:19.573Z,92.04
2023-05-21T01:21:49.882Z,92.03
2023-05-21T01:24:16.479Z,94.19
2023-05-21T01:26:44.246Z,93.08
2023-05-21T01:29:14.234Z,88.61
2023-05-21T01:31:52.581Z,91.92
2023-05-21T01:34:24.168Z,92.00
2023-05-21T01:36:59.682Z,97.27
2023-05-21T01:39:33.655Z,98.53
2023-05-21T01:42:03.347Z,98.52
2023-05-21T01:44:31.042Z,100.00
2023-05-21T01:46:59.392Z,100.00
2023-05-21T01:49:26.033Z,100.00
2023-05-21T01:51:52.913Z,100.00
2023-05-21T01:54:19.540Z,100.00
2023-05-21T01:56:46.144Z,100.00
2023-05-21T01:59:12.781Z,100.00
2023-05-21T02:01:39.597Z,100.00
2023-05-21T02:04:06.750Z,100.00
2023-05-21T02:06:33.502Z,100.00
2023-05-21T02:09:00.167Z,100.00
2023-05-21T02:11:26.844Z,100.00
2023-05-21T02:13:54.411Z,100.00
2023-05-21T02:16:22.723Z,100.00
2023-05-21T02:18:53.622Z,100.00
2023-05-21T02:21:20.754Z,100.00
2023-05-21T02:23:47.509Z,100.00
2023-05-21T02:26:14.266Z,100.00
2023-05-21T02:28:40.905Z,100.00
2023-05-21T02:31:07.430Z,100.00
2023-05-21T02:33:34.121Z,100.00
2023-05-21T02:36:00.795Z,100.00
2023-05-21T02:38:27.565Z,100.00
2023-05-21T02:40:54.192Z,100.00
2023-05-21T02:43:21.106Z,100.00
2023-05-21T02:45:47.951Z,100.00
2023-05-21T02:48:14.865Z,100.00
2023-05-21T02:50:41.973Z,100.00
2023-05-21T02:53:08.730Z,100.00
2023-05-21T02:55:36.280Z,100.00
2023-05-21T02:58:03.019Z,100.00
2023-05-21T03:00:29.559Z,100.00
2023-05-21T03:02:56.683Z,100.00
2023-05-21T03:05:24.423Z,100.00
2023-05-21T03:07:51.079Z,100.00
2023-05-21T03:10:17.718Z,100.00
2023-05-21T03:12:44.349Z,100.00
2023-05-21T03:15:14.813Z,100.00
2023-05-21T03:17:44.809Z,100.00
2023-05-21T03:20:16.323Z,100.00
2023-05-21T03:22:44.503Z,100.00
2023-05-21T03:25:12.779Z,100.00
2023-05-21T03:27:39.736Z,100.00
2023-05-21T03:30:13.687Z,100.00
2023-05-21T03:32:59.837Z,100.00
2023-05-21T03:35:26.488Z,100.00
2023-05-21T03:37:53.156Z,100.00
2023-05-21T03:40:19.703Z,100.00
2023-05-21T03:42:46.230Z,100.00
2023-05-21T03:45:12.936Z,100.00
2023-05-21T03:47:56.859Z,100.00
2023-05-21T03:50:23.641Z,100.00
2023-05-21T03:52:50.402Z,100.00
2023-05-21T03:55:17.087Z,100.00
2023-05-21T03:57:43.750Z,100.00
2023-05-21T04:00:10.639Z,100.00
2023-05-21T04:02:42.935Z,100.00
2023-05-21T04:05:11.545Z,100.00
2023-05-21T04:07:38.357Z,100.00
2023-05-21T04:10:05.756Z,100.00
2023-05-21T04:12:32.261Z,100.00
2023-05-21T04:14:58.940Z,100.00
2023-05-21T04:17:26.845Z,100.00
2023-05-21T04:19:54.460Z,100.00
2023-05-21T04:22:23.348Z,100.00
2023-05-21T04:24:49.992Z,100.00
2023-05-21T04:27:19.539Z,100.00
2023-05-21T04:29:46.176Z,100.00
2023-05-21T04:32:15.175Z,100.00
2023-05-21T04:34:42.895Z,100.00
2023-05-21T04:37:10.153Z,100.00
2023-05-21T04:39:36.765Z,100.00
2023-05-21T04:42:04.024Z,100.00
2023-05-21T04:44:30.550Z,100.00
2023-05-21T04:46:58.747Z,100.00
2023-05-21T04:49:25.639Z,100.00
2023-05-21T04:51:52.237Z,100.00
2023-05-21T04:54:18.824Z,100.00
2023-05-21T04:56:47.370Z,100.00
2023-05-21T04:59:15.080Z,100.00
2023-05-21T05:01:43.923Z,100.00
2023-05-21T05:04:10.556Z,100.00
2023-05-21T05:06:37.129Z,100.00
2023-05-21T05:09:05.269Z,100.00
2023-05-21T05:11:31.880Z,100.00
2023-05-21T05:13:58.783Z,100.00
2023-05-21T05:16:26.099Z,100.00
2023-05-21T05:18:55.987Z,99.43
2023-05-21T05:21:23.772Z,100.00
2023-05-21T05:23:50.396Z,100.00
2023-05-21T05:26:17.569Z,99.23
2023-05-21T05:28:45.888Z,97.77
2023-05-21T05:31:12.618Z,98.63
2023-05-21T05:33:40.966Z,98.89
2023-05-21T05:36:07.919Z,98.87
2023-05-21T05:38:35.836Z,98.19
2023-05-21T05:41:02.507Z,97.58
2023-05-21T05:43:29.137Z,99.16
2023-05-21T05:45:57.773Z,98.32
2023-05-21T05:48:24.323Z,97.26
2023-05-21T05:50:54.530Z,92.13
2023-05-21T05:53:22.203Z,93.87
2023-05-21T05:55:48.921Z,94.97
2023-05-21T05:58:15.712Z,96.22
2023-05-21T06:01:07.186Z,93.88
2023-05-21T06:03:34.039Z,94.82
2023-05-21T06:06:07.065Z,93.77
2023-05-21T06:08:37.339Z,92.89
2023-05-21T06:11:04.665Z,91.75
2023-05-21T06:13:31.962Z,88.90
2023-05-21T06:15:58.494Z,90.96
2023-05-21T06:18:25.061Z,92.79
2023-05-21T06:20:51.720Z,90.23
2023-05-21T06:23:19.724Z,91.83
2023-05-21T06:25:46.594Z,91.07
2023-05-21T06:28:13.120Z,91.77
2023-05-21T06:30:39.756Z,91.87
2023-05-21T06:33:06.962Z,92.03
2023-05-21T06:35:37.158Z,86.41
2023-05-21T06:38:04.102Z,86.21
2023-05-21T06:40:30.806Z,85.18
2023-05-21T06:42:59.909Z,85.31
2023-05-21T06:45:45.136Z,87.77
2023-05-21T06:48:25.390Z,88.22
2023-05-21T06:50:52.376Z,89.29
2023-05-21T06:53:19.118Z,82.75
2023-05-21T06:55:45.895Z,83.48
2023-05-21T06:58:16.043Z,82.96
2023-05-21T07:00:42.624Z,83.68
2023-05-21T07:03:10.220Z,81.10
2023-05-21T07:05:37.377Z,78.91
2023-05-21T07:08:05.451Z,82.45
2023-05-21T07:10:32.106Z,80.25
2023-05-21T07:12:58.650Z,78.75
2023-05-21T07:15:26.299Z,74.44
2023-05-21T07:17:53.016Z,77.21
2023-05-21T07:20:19.722Z,71.41
2023-05-21T07:22:49.537Z,73.81
2023-05-21T07:25:17.231Z,78.70
2023-05-21T07:27:44.201Z,76.57
2023-05-21T07:30:11.377Z,69.06
2023-05-21T07:32:38.056Z,69.25
2023-05-21T07:35:05.095Z,67.53
2023-05-21T07:37:31.854Z,63.18
2023-05-21T07:39:59.265Z,63.26
2023-05-21T07:42:26.492Z,66.39
2023-05-21T07:44:54.557Z,71.52
2023-05-21T07:47:23.513Z,64.26
2023-05-21T07:49:51.005Z,62.26
2023-05-21T07:52:18.032Z,59.62
2023-05-21T07:54:44.639Z,61.28
2023-05-21T07:57:11.363Z,57.44
2023-05-21T08:00:00.141Z,56.54
2023-05-21T08:02:28.867Z,56.95
2023-05-21T08:04:55.542Z,58.19
2023-05-21T08:07:22.218Z,59.58
2023-05-21T08:09:48.810Z,54.64
2023-05-21T08:12:16.049Z,53.29
2023-05-21T08:14:43.670Z,52.84
2023-05-21T08:17:12.205Z,55.29
2023-05-21T08:19:39.206Z,56.81
2023-05-21T08:22:06.680Z,54.68
2023-05-21T08:24:34.945Z,54.40
2023-05-21T08:27:01.907Z,55.38
2023-05-21T08:29:30.685Z,55.63
2023-05-21T08:31:57.388Z,59.05
2023-05-21T08:34:24.490Z,59.52
2023-05-21T08:37:06.829Z,63.49
2023-05-21T08:39:56.182Z,63.61
2023-05-21T08:42:50.150Z,62.63
2023-05-21T08:45:38.424Z,62.21
2023-05-21T08:48:06.436Z,65.63
2023-05-21T08:50:35.826Z,66.88
2023-05-21T08:53:19.477Z,64.81
2023-05-21T08:55:52.569Z,68.79
2023-05-21T08:58:20.178Z,67.79
2023-05-21T09:00:46.867Z,69.30
2023-05-21T09:03:14.925Z,69.77
2023-05-21T09:05:44.932Z,69.74
2023-05-21T09:08:35.516Z,73.89
2023-05-21T09:11:06.462Z,72.27
2023-05-21T09:13:46.445Z,73.60
2023-05-21T09:16:21.109Z,72.84
2023-05-21T09:18:49.139Z,73.98
2023-05-21T09:21:29.349Z,75.07
2023-05-21T09:24:01.634Z,75.37
2023-05-21T09:26:29.031Z,73.75
2023-05-21T09:29:00.728Z,75.72
2023-05-21T09:31:27.607Z,75.25
2023-05-21T09:33:55.637Z,74.96
2023-05-21T09:36:23.306Z,70.20
2023-05-21T09:38:51.813Z,69.16
2023-05-21T09:41:21.906Z,63.98
2023-05-21T09:43:49.553Z,65.47
2023-05-21T09:46:21.012Z,67.81
2023-05-21T09:48:47.587Z,66.43
2023-05-21T09:51:17.206Z,61.53
2023-05-21T09:53:53.066Z,61.08
2023-05-21T09:56:24.940Z,66.17
2023-05-21T09:58:54.712Z,65.61
2023-05-21T10:01:21.891Z,62.36
2023-05-21T10:03:54.924Z,60.91
2023-05-21T10:06:22.934Z,62.93
2023-05-21T10:08:53.480Z,63.71
2023-05-21T10:11:24.130Z,59.68
2023-05-21T10:13:57.504Z,61.61
2023-05-21T10:16:24.213Z,66.17
2023-05-21T10:18:54.128Z,63.61
2023-05-21T10:21:23.910Z,57.58
2023-05-21T10:23:51.663Z,56.61
2023-05-21T10:26:21.472Z,60.49
2023-05-21T10:28:50.697Z,55.54
2023-05-21T10:31:18.113Z,55.84
2023-05-21T10:33:44.849Z,56.25
2023-05-21T10:36:12.006Z,58.22
2023-05-21T10:38:39.050Z,59.10
2023-05-21T10:41:07.377Z,49.24
2023-05-21T10:43:48.849Z,50.82
2023-05-21T10:46:28.834Z,45.46
2023-05-21T10:49:29.932Z,47.32
2023-05-21T10:52:10.229Z,48.83
2023-05-21T10:55:01.944Z,44.23
2023-05-21T10:57:46.441Z,42.13
2023-05-21T11:00:16.770Z,42.24
2023-05-21T11:02:45.886Z,44.59
2023-05-21T11:05:12.599Z,45.94
2023-05-21T11:07:56.462Z,44.51
2023-05-21T11:10:38.462Z,45.65
2023-05-21T11:13:07.577Z,42.81
2023-05-21T11:16:16.772Z,43.45
2023-05-21T11:18:43.316Z,43.14
2023-05-21T11:21:12.524Z,41.00
2023-05-21T11:23:51.263Z,44.09
2023-05-21T11:26:19.636Z,40.56
2023-05-21T11:28:46.802Z,43.04
2023-05-21T11:31:26.866Z,39.04
2023-05-21T11:34:22.184Z,39.62
2023-05-21T11:36:49.953Z,38.90
2023-05-21T11:39:22.287Z,42.03
2023-05-21T11:41:57.587Z,37.71
2023-05-21T11:44:43.714Z,37.14
2023-05-21T11:47:11.920Z,39.17
2023-05-21T11:49:39.155Z,40.07
2023-05-21T11:52:07.653Z,41.57
2023-05-21T11:54:40.972Z,42.67
2023-05-21T11:57:08.300Z,44.45
2023-05-21T11:59:35.754Z,45.05
2023-05-21T12:02:04.962Z,44.81
2023-05-21T12:04:38.658Z,45.14
2023-05-21T12:07:09.354Z,44.82
2023-05-21T12:09:43.392Z,42.97
2023-05-21T12:12:11.347Z,44.81
2023-05-21T12:14:38.114Z,44.36
2023-05-21T12:17:06.953Z,41.58
2023-05-21T12:19:35.638Z,45.80
2023-05-21T12:22:06.973Z,44.82
2023-05-21T12:24:34.758Z,42.23
2023-05-21T12:27:03.782Z,45.24
2023-05-21T12:29:32.198Z,39.29
2023-05-21T12:32:03.883Z,36.60
2023-05-21T12:34:49.762Z,38.45
2023-05-21T12:37:26.912Z,39.19
2023-05-21T12:39:59.394Z,37.39
2023-05-21T12:42:27.417Z,36.85
2023-05-21T12:44:54.497Z,37.71
2023-05-21T12:47:24.492Z,37.00
2023-05-21T12:49:55.385Z,38.89
2023-05-21T12:52:22.548Z,35.57
2023-05-21T12:54:53.561Z,37.21
2023-05-21T12:57:26.294Z,39.71
2023-05-21T12:59:59.709Z,36.88
2023-05-21T13:02:27.941Z,36.62
2023-05-21T13:05:05.849Z,39.85
2023-05-21T13:07:35.513Z,34.80
2023-05-21T13:10:04.204Z,38.00
2023-05-21T13:12:32.349Z,37.38
2023-05-21T13:15:04.049Z,35.33
2023-05-21T13:17:30.912Z,37.25
2023-05-21T13:20:14.219Z,38.17
2023-05-21T13:22:51.741Z,37.54
2023-05-21T13:25:28.496Z,35.77
2023-05-21T13:27:56.207Z,36.62
2023-05-21T13:30:28.794Z,38.91
2023-05-21T13:33:21.218Z,39.12
2023-05-21T13:35:51.232Z,36.81
2023-05-21T13:38:18.208Z,38.01
2023-05-21T13:40:44.772Z,37.86
2023-05-21T13:43:11.354Z,37.75
2023-05-21T13:46:08.749Z,39.05
2023-05-21T13:48:38.972Z,37.25
2023-05-21T13:54:17.653Z,35.50
2023-05-21T13:56:51.785Z,36.37
2023-05-21T13:59:18.949Z,35.30
2023-05-21T14:01:45.593Z,34.66
2023-05-21T14:04:12.502Z,33.97
2023-05-21T14:06:39.542Z,36.25
2023-05-21T14:09:06.482Z,37.22
2023-05-21T14:11:33.512Z,37.66
2023-05-21T14:14:00.064Z,35.68
2023-05-21T14:16:27.633Z,36.84
2023-05-21T14:18:55.111Z,35.54
2023-05-21T14:21:22.175Z,35.39
2023-05-21T14:23:49.169Z,36.31
2023-05-21T14:26:16.971Z,38.41
2023-05-21T14:28:45.336Z,39.05
2023-05-21T14:31:12.429Z,37.83
2023-05-21T14:33:39.319Z,39.67
2023-05-21T14:36:05.952Z,38.90
2023-05-21T14:38:32.639Z,38.50
2023-05-21T14:40:59.148Z,38.70
2023-05-21T14:43:25.763Z,37.87
2023-05-21T14:45:52.361Z,38.92
2023-05-21T14:48:22.746Z,38.53
2023-05-21T14:50:52.324Z,38.36
2023-05-21T14:53:19.483Z,39.17
2023-05-21T14:55:46.298Z,38.33
2023-05-21T14:58:13.000Z,40.06
2023-05-21T15:00:39.898Z,39.88
2023-05-21T15:03:06.653Z,38.62
2023-05-21T15:05:33.566Z,40.66
2023-05-21T15:08:00.195Z,40.27
2023-05-21T15:10:28.307Z,40.01
2023-05-21T15:12:54.889Z,38.22
2023-05-21T15:15:21.847Z,40.34
2023-05-21T15:17:49.667Z,40.66
2023-05-21T15:20:17.186Z,41.31
2023-05-21T15:22:43.953Z,39.71
2023-05-21T15:25:10.560Z,40.61
2023-05-21T15:27:37.153Z,40.98
2023-05-21T15:30:04.758Z,40.87
2023-05-21T15:32:31.582Z,41.84
2023-05-21T15:34:58.230Z,42.47
2023-05-21T15:37:25.257Z,41.88
2023-05-21T15:39:53.374Z,40.09
2023-05-21T15:42:21.083Z,40.85
2023-05-21T15:44:48.003Z,41.20
2023-05-21T15:47:14.494Z,40.54
2023-05-21T15:49:41.019Z,40.76
2023-05-21T15:52:07.610Z,40.68
2023-05-21T15:54:34.136Z,41.99
2023-05-21T15:57:00.872Z,41.80
2023-05-21T15:59:27.591Z,42.34
2023-05-21T16:01:55.949Z,41.42
2023-05-21T16:04:22.481Z,41.54
2023-05-21T16:06:49.010Z,41.14
2023-05-21T16:09:16.165Z,39.99
2023-05-21T16:11:44.792Z,40.63
2023-05-21T16:14:12.177Z,38.87
2023-05-21T16:16:39.156Z,39.75
2023-05-21T16:19:06.060Z,40.51
2023-05-21T16:21:33.003Z,40.18
2023-05-21T16:23:59.926Z,40.76
2023-05-21T16:26:26.468Z,40.20
2023-05-21T16:28:53.580Z,39.66
2023-05-21T16:31:21.165Z,40.51
2023-05-21T16:33:47.972Z,40.82
2023-05-21T16:36:15.822Z,39.99
2023-05-21T16:38:44.670Z,40.32
2023-05-21T16:41:11.226Z,40.21
2023-05-21T16:43:37.802Z,39.11
2023-05-21T16:46:04.745Z,40.67
2023-05-21T16:48:32.732Z,40.58
2023-05-21T16:51:03.385Z,41.37
2023-05-21T16:53:29.977Z,39.53
2023-05-21T16:55:56.609Z,41.37
2023-05-21T16:58:23.199Z,40.82
2023-05-21T17:00:49.806Z,40.82
2023-05-21T17:03:17.057Z,41.06
2023-05-21T17:05:43.914Z,41.06
2023-05-21T17:08:10.543Z,41.13
2023-05-21T17:10:37.132Z,41.33
2023-05-21T17:13:17.782Z,40.93
2023-05-21T17:15:47.826Z,41.30
2023-05-21T17:18:14.394Z,42.04
2023-05-21T17:20:41.180Z,41.22
2023-05-21T17:23:07.734Z,41.40
2023-05-21T17:25:34.718Z,41.99
2023-05-21T17:28:01.658Z,42.22
2023-05-21T17:30:28.224Z,43.29
2023-05-21T17:32:55.016Z,44.06
2023-05-21T17:35:21.571Z,44.80
2023-05-21T17:37:48.135Z,45.96
2023-05-21T17:40:14.927Z,46.18
2023-05-21T17:42:41.466Z,47.01
2023-05-21T17:45:08.364Z,47.66
2023-05-21T17:47:35.176Z,48.40
2023-05-21T17:50:01.780Z,49.23
2023-05-21T17:52:28.379Z,49.60
2023-05-21T17:54:55.106Z,50.49
2023-05-21T17:57:21.633Z,50.95
2023-05-21T17:59:48.174Z,51.07
2023-05-21T18:02:14.820Z,51.73
2023-05-21T18:04:41.397Z,52.00
2023-05-21T18:07:08.098Z,52.81
2023-05-21T18:09:34.699Z,53.74
2023-05-21T18:12:03.176Z,54.15
2023-05-21T18:14:29.902Z,54.42
2023-05-21T18:16:56.544Z,55.39
2023-05-21T18:19:23.208Z,55.97
2023-05-21T18:21:49.838Z,56.29
2023-05-21T18:24:16.462Z,56.94
2023-05-21T18:26:43.616Z,57.62
2023-05-21T18:29:11.291Z,58.34
2023-05-21T18:31:37.934Z,58.97
2023-05-21T18:34:04.485Z,59.99
2023-05-21T18:36:38.386Z,60.67
2023-05-21T18:39:07.083Z,61.26
2023-05-21T18:41:33.968Z,62.42
2023-05-21T18:44:03.620Z,62.53
2023-05-21T18:46:31.672Z,63.02
2023-05-21T18:48:59.895Z,63.85
2023-05-21T18:51:26.537Z,64.64
2023-05-21T18:53:53.224Z,65.58
2023-05-21T18:56:19.799Z,65.98
2023-05-21T18:58:47.535Z,66.52
2023-05-21T19:01:14.337Z,67.30
2023-05-21T19:03:41.048Z,68.12
2023-05-21T19:06:08.469Z,68.98
2023-05-21T19:08:35.055Z,70.03
2023-05-21T19:11:01.668Z,70.92
2023-05-21T19:13:28.617Z,71.60
2023-05-21T19:15:55.415Z,73.20
2023-05-21T19:18:21.993Z,74.07
2023-05-21T19:20:48.537Z,74.34
2023-05-21T19:23:15.203Z,75.83
2023-05-21T19:25:41.750Z,75.93
2023-05-21T19:28:08.309Z,76.57
2023-05-21T19:30:36.274Z,76.97
2023-05-21T19:33:03.310Z,76.86
2023-05-21T19:35:30.159Z,77.56
2023-05-21T19:38:00.230Z,78.12
2023-05-21T19:40:28.290Z,78.19
2023-05-21T19:42:54.816Z,79.09
2023-05-21T19:45:22.693Z,79.68
2023-05-21T19:47:49.227Z,80.92
2023-05-21T19:50:15.866Z,81.24
2023-05-21T19:52:43.777Z,81.56
2023-05-21T19:55:10.477Z,81.79
2023-05-21T19:57:37.226Z,82.70
2023-05-21T20:00:05.491Z,82.91
2023-05-21T20:02:39.491Z,83.05
2023-05-21T20:05:07.442Z,83.02
2023-05-21T20:07:34.043Z,83.05
2023-05-21T20:10:00.901Z,82.13
2023-05-21T20:12:27.497Z,82.59
2023-05-21T20:14:54.264Z,83.08
2023-05-21T20:17:20.880Z,83.27
2023-05-21T20:19:48.074Z,83.55
2023-05-21T20:22:15.587Z,84.17
2023-05-21T20:24:42.856Z,84.32
2023-05-21T20:27:09.980Z,84.05
2023-05-21T20:29:36.607Z,84.38
2023-05-21T20:32:03.241Z,85.59
2023-05-21T20:34:29.811Z,86.47
2023-05-21T20:36:58.147Z,86.49
2023-05-21T20:39:27.388Z,87.70
2023-05-21T20:41:55.086Z,87.65
2023-05-21T20:44:22.320Z,87.89
2023-05-21T20:46:49.178Z,87.29
2023-05-21T20:49:17.630Z,87.56
2023-05-21T20:51:44.487Z,87.27
2023-05-21T20:54:11.567Z,87.93
2023-05-21T20:56:42.492Z,88.57
2023-05-21T20:59:11.069Z,89.60
2023-05-21T21:01:39.220Z,90.54
2023-05-21T21:04:06.047Z,91.35
2023-05-21T21:06:32.646Z,93.04
2023-05-21T21:08:59.357Z,94.22
2023-05-21T21:11:26.633Z,95.82
2023-05-21T21:13:53.317Z,96.19
2023-05-21T21:16:19.913Z,97.75
2023-05-21T21:18:47.359Z,98.61
2023-05-21T21:21:13.971Z,99.63
2023-05-21T21:23:40.703Z,100.00
2023-05-21T21:26:07.305Z,100.00
2023-05-21T21:28:33.979Z,100.00
2023-05-21T21:31:00.696Z,100.00
2023-05-21T21:33:28.458Z,100.00
2023-05-21T21:35:55.222Z,100.00
2023-05-21T21:38:21.980Z,100.00
2023-05-21T21:40:48.676Z,100.00
2023-05-21T21:43:15.265Z,100.00
2023-05-21T21:45:41.955Z,100.00
2023-05-21T21:48:08.648Z,100.00
2023-05-21T21:50:35.381Z,100.00
2023-05-21T21:53:03.520Z,100.00
2023-05-21T21:55:30.204Z,100.00
2023-05-21T21:57:56.784Z,100.00
2023-05-21T22:00:26.601Z,100.00
2023-05-21T22:02:53.929Z,100.00
2023-05-21T22:05:20.925Z,100.00
2023-05-21T22:07:47.866Z,100.00
2023-05-21T22:10:15.987Z,100.00
2023-05-21T22:12:43.826Z,100.00
2023-05-21T22:15:25.183Z,100.00
2023-05-21T22:17:52.109Z,100.00
2023-05-21T22:20:19.254Z,100.00
2023-05-21T22:22:46.128Z,100.00
2023-05-21T22:25:12.889Z,100.00
2023-05-21T22:27:40.211Z,100.00
2023-05-21T22:30:07.404Z,100.00
2023-05-21T22:32:33.979Z,100.00
2023-05-21T22:35:00.626Z,100.00
2023-05-21T22:37:27.963Z,100.00
2023-05-21T22:39:54.564Z,100.00
2023-05-21T22:42:21.290Z,100.00
2023-05-21T22:44:47.920Z,100.00
2023-05-21T22:47:14.677Z,100.00
2023-05-21T22:49:41.295Z,100.00
2023-05-21T22:52:09.194Z,100.00
2023-05-21T22:54:36.198Z,100.00
2023-05-21T22:57:03.428Z,100.00
2023-05-21T22:59:30.178Z,100.00
2023-05-21T23:01:56.896Z,100.00
2023-05-21T23:04:35.813Z,100.00
2023-05-21T23:07:06.760Z,100.00
2023-05-21T23:09:33.251Z,100.00
2023-05-21T23:11:59.865Z,100.00
2023-05-21T23:14:26.459Z,100.00
2023-05-21T23:16:53.857Z,100.00
2023-05-21T23:19:21.244Z,100.00
2023-05-21T23:21:47.787Z,100.00
2023-05-21T23:24:14.438Z,100.00
2023-05-21T23:26:41.080Z,100.00
2023-05-21T23:29:07.719Z,100.00
2023-05-21T23:31:34.599Z,100.00
2023-05-21T23:34:02.753Z,100.00
2023-05-21T23:36:29.328Z,100.00
2023-05-21T23:38:55.953Z,100.00
2023-05-21T23:41:23.826Z,100.00
2023-05-21T23:43:50.754Z,100.00
2023-05-21T23:46:17.431Z,100.00
2023-05-21T23:48:43.957Z,100.00
2023-05-21T23:51:10.565Z,100.00
2023-05-21T23:53:37.120Z,100.00
2023-05-21T23:56:03.868Z,100.00
2023-05-21T23:58:30.356Z,100.00
